Time;durP1;ratioP1;P1;durP2;ratioP2;P2;SDS_P1;SDS_P2;PMS_P1;PMS_P2;Temp;Humidity;BMP_temperature;BMP_pressure;BME280_temperature;BME280_humidity;BME280_pressure;Samples;Min_cycle;Max_cycle;Signal;HPM_P1;HPM_P2
2023/05/18 00:01:02;;;;;;;8.03;5.10;;;13.90;51.90;;;;;;5044569;28;20203;-46
2023/05/18 00:03:28;;;;;;;7.80;5.30;;;13.90;51.90;;;;;;5049838;28;20200;-46
2023/05/18 00:05:56;;;;;;;6.93;5.57;;;13.90;51.90;;;;;;5045364;28;20565;-47
2023/05/18 00:08:22;;;;;;;6.10;4.70;;;13.90;52.00;;;;;;5043428;28;20490;-46
2023/05/18 00:10:47;;;;;;;7.50;4.63;;;13.90;52.00;;;;;;5045553;28;20498;-48
2023/05/18 00:13:13;;;;;;;5.63;4.97;;;13.60;52.30;;;;;;5043773;28;20196;-46
2023/05/18 00:15:39;;;;;;;7.63;5.20;;;13.40;52.70;;;;;;5046739;28;20189;-46
2023/05/18 00:18:05;;;;;;;5.90;5.30;;;13.40;53.10;;;;;;5050947;28;20639;-46
2023/05/18 00:20:31;;;;;;;6.87;5.50;;;13.30;53.10;;;;;;5043348;28;20279;-48
2023/05/18 00:22:56;;;;;;;7.90;6.17;;;13.20;53.10;;;;;;5049548;28;21125;-47
2023/05/18 00:25:22;;;;;;;6.83;5.50;;;13.20;53.60;;;;;;5051802;28;20631;-46
2023/05/18 00:27:48;;;;;;;7.23;5.83;;;13.20;53.40;;;;;;5047094;28;20196;-47
2023/05/18 00:30:14;;;;;;;8.30;6.57;;;13.20;53.40;;;;;;5049724;28;20713;-48
2023/05/18 00:32:40;;;;;;;6.80;5.83;;;13.10;53.80;;;;;;5052408;28;20442;-46
2023/05/18 00:35:06;;;;;;;5.67;5.03;;;13.00;53.90;;;;;;5053531;28;20526;-46
2023/05/18 00:37:32;;;;;;;8.10;6.27;;;12.60;54.40;;;;;;5043725;28;20236;-47
2023/05/18 00:39:57;;;;;;;7.27;5.13;;;12.60;54.70;;;;;;5053811;28;20458;-48
2023/05/18 00:42:23;;;;;;;9.83;5.63;;;12.60;54.50;;;;;;5051955;28;20227;-46
2023/05/18 00:44:48;;;;;;;8.70;4.40;;;12.70;54.30;;;;;;5052282;28;20220;-49
2023/05/18 00:47:14;;;;;;;7.80;5.97;;;12.70;53.90;;;;;;5053719;28;20200;-46
2023/05/18 00:49:40;;;;;;;6.93;5.10;;;12.70;54.00;;;;;;5052352;28;20205;-47
2023/05/18 00:52:06;;;;;;;6.97;4.83;;;12.80;53.80;;;;;;5050170;28;20944;-46
2023/05/18 00:54:33;;;;;;;7.20;5.40;;;12.80;53.80;;;;;;5042117;28;20542;-47
2023/05/18 00:57:01;;;;;;;7.10;5.37;;;12.70;53.90;;;;;;5050540;28;20462;-47
2023/05/18 00:59:28;;;;;;;5.37;4.10;;;12.50;54.30;;;;;;5041268;28;20474;-47
2023/05/18 01:01:55;;;;;;;8.73;6.20;;;12.50;54.30;;;;;;5050243;28;20445;-46
2023/05/18 01:04:23;;;;;;;9.30;5.40;;;12.60;54.10;;;;;;5047935;28;20498;-49
2023/05/18 01:06:49;;;;;;;9.00;5.83;;;12.60;53.90;;;;;;5049930;28;20493;-46
2023/05/18 01:09:16;;;;;;;7.23;5.27;;;12.70;53.80;;;;;;5046504;28;20451;-46
2023/05/18 01:11:58;;;;;;;7.07;5.53;;;12.70;53.90;;;;;;5051783;28;20439;-46
2023/05/18 01:14:31;;;;;;;7.30;5.93;;;12.30;54.50;;;;;;5046026;28;20500;-47
2023/05/18 01:17:04;;;;;;;6.20;5.20;;;12.20;55.30;;;;;;5043536;28;21118;-46
2023/05/18 01:19:51;;;;;;;5.63;5.03;;;12.30;55.10;;;;;;5048373;28;20479;-46
2023/05/18 01:22:43;;;;;;;6.20;4.70;;;12.40;54.90;;;;;;5050323;28;21006;-48
2023/05/18 01:25:32;;;;;;;7.40;5.30;;;12.50;54.60;;;;;;5043334;28;20573;-47
2023/05/18 01:28:05;;;;;;;6.40;5.17;;;12.50;54.30;;;;;;5049082;28;20845;-46
2023/05/18 01:30:38;;;;;;;7.27;5.40;;;12.60;54.20;;;;;;5048261;28;20479;-46
2023/05/18 01:33:08;;;;;;;6.10;5.50;;;12.60;54.10;;;;;;5048609;28;22520;-47
2023/05/18 01:35:35;;;;;;;7.10;5.10;;;12.50;53.80;;;;;;5046281;28;20443;-49
2023/05/18 01:38:01;;;;;;;5.97;5.23;;;12.50;53.50;;;;;;5041863;28;20443;-46
2023/05/18 01:40:41;;;;;;;6.60;5.50;;;12.50;53.70;;;;;;5045313;28;20469;-46
2023/05/18 01:43:12;;;;;;;7.30;5.37;;;12.50;53.90;;;;;;5049700;28;20446;-47
2023/05/18 01:45:42;;;;;;;7.03;5.33;;;12.50;54.00;;;;;;5050754;28;20921;-46
2023/05/18 01:48:10;;;;;;;6.20;5.00;;;12.50;53.90;;;;;;5043537;28;20444;-47
2023/05/18 01:50:42;;;;;;;8.77;5.60;;;12.40;53.90;;;;;;5046255;28;20813;-48
2023/05/18 01:53:18;;;;;;;7.07;5.80;;;12.40;53.90;;;;;;5048330;28;20437;-47
2023/05/18 01:55:45;;;;;;;5.97;4.87;;;12.50;54.00;;;;;;5048761;28;20787;-46
2023/05/18 01:58:12;;;;;;;11.00;5.80;;;12.40;53.90;;;;;;5044086;28;20483;-50
2023/05/18 02:00:38;;;;;;;5.03;4.53;;;12.40;54.00;;;;;;5044840;28;20445;-49
2023/05/18 02:03:04;;;;;;;7.03;5.30;;;12.40;54.00;;;;;;5041926;28;20857;-46
2023/05/18 02:05:30;;;;;;;11.63;5.03;;;12.40;53.90;;;;;;5050839;28;20490;-46
2023/05/18 02:07:56;;;;;;;7.30;6.03;;;12.40;53.80;;;;;;5042655;28;20941;-48
2023/05/18 02:10:22;;;;;;;7.17;5.70;;;12.40;53.70;;;;;;5041587;28;20197;-46
2023/05/18 02:12:51;;;;;;;7.07;5.20;;;12.40;53.70;;;;;;5052927;28;20438;-46
2023/05/18 02:15:17;;;;;;;7.30;5.73;;;12.40;53.70;;;;;;5047185;28;20201;-46
2023/05/18 02:17:42;;;;;;;8.00;5.57;;;12.30;53.50;;;;;;5049237;28;20439;-47
2023/05/18 02:20:08;;;;;;;8.10;5.20;;;12.30;53.50;;;;;;5052510;28;20648;-46
2023/05/18 02:22:35;;;;;;;7.30;5.37;;;12.30;53.50;;;;;;5043001;28;20239;-46
2023/05/18 02:25:01;;;;;;;6.10;5.33;;;12.20;53.40;;;;;;5042099;28;20479;-48
2023/05/18 02:27:27;;;;;;;6.97;5.00;;;12.20;53.20;;;;;;5051479;28;20447;-47
2023/05/18 02:29:53;;;;;;;10.50;5.00;;;12.20;53.20;;;;;;5051682;28;20434;-46
2023/05/18 02:32:18;;;;;;;8.37;5.07;;;12.10;53.00;;;;;;5049616;28;20204;-46
2023/05/18 02:34:45;;;;;;;6.27;5.00;;;12.10;53.10;;;;;;5050083;28;20431;-48
2023/05/18 02:37:12;;;;;;;8.40;4.97;;;12.00;52.90;;;;;;5052272;28;20663;-45
2023/05/18 02:39:38;;;;;;;5.60;5.10;;;12.00;53.10;;;;;;5049618;28;20486;-48
2023/05/18 02:42:04;;;;;;;5.80;4.73;;;11.90;53.20;;;;;;5049343;28;20435;-48
2023/05/18 02:44:30;;;;;;;6.90;5.30;;;11.90;53.40;;;;;;5049447;28;20489;-50
2023/05/18 02:46:56;;;;;;;8.40;5.73;;;11.90;53.50;;;;;;5049349;28;20831;-45
2023/05/18 02:49:21;;;;;;;7.43;4.97;;;11.80;53.50;;;;;;5047113;28;20535;-46
2023/05/18 02:51:47;;;;;;;6.67;5.97;;;11.80;53.70;;;;;;5040791;28;20618;-48
2023/05/18 02:54:12;;;;;;;6.47;5.60;;;11.80;53.70;;;;;;5050007;28;20193;-46
2023/05/18 02:56:40;;;;;;;7.20;5.03;;;11.80;53.70;;;;;;5049693;28;20276;-47
2023/05/18 02:59:06;;;;;;;6.50;5.20;;;11.70;53.60;;;;;;5048180;28;20224;-45
2023/05/18 03:01:35;;;;;;;6.63;5.17;;;11.70;53.70;;;;;;5042698;28;20447;-47
2023/05/18 03:04:01;;;;;;;9.00;4.83;;;11.70;53.80;;;;;;5048610;28;20554;-46
2023/05/18 03:06:29;;;;;;;7.93;5.10;;;11.60;53.80;;;;;;5046508;28;20473;-46
2023/05/18 03:08:55;;;;;;;8.57;5.53;;;11.60;54.40;;;;;;5047488;28;20445;-46
2023/05/18 03:11:22;;;;;;;6.77;4.93;;;11.60;53.90;;;;;;5039708;28;20435;-47
2023/05/18 03:13:47;;;;;;;6.53;4.83;;;11.60;53.90;;;;;;5047719;28;20439;-45
2023/05/18 03:16:14;;;;;;;8.00;5.60;;;11.50;53.60;;;;;;5049433;28;20439;-46
2023/05/18 03:18:40;;;;;;;5.37;4.83;;;11.50;54.00;;;;;;5036431;28;20212;-45
2023/05/18 03:21:06;;;;;;;6.40;5.20;;;11.50;54.30;;;;;;5045494;28;20442;-46
2023/05/18 03:23:32;;;;;;;6.87;5.20;;;11.50;54.40;;;;;;5039341;28;20441;-45
2023/05/18 03:26:01;;;;;;;7.90;5.37;;;11.50;54.30;;;;;;5036597;28;20901;-48
2023/05/18 03:28:27;;;;;;;6.53;5.43;;;11.50;54.30;;;;;;5041798;28;20204;-46
2023/05/18 03:30:53;;;;;;;5.30;4.80;;;11.50;54.20;;;;;;5048603;28;22212;-47
2023/05/18 03:33:19;;;;;;;6.63;5.43;;;11.60;54.30;;;;;;5046805;28;20471;-47
2023/05/18 03:35:45;;;;;;;6.60;4.70;;;11.60;54.20;;;;;;5041557;28;20930;-46
2023/05/18 03:38:10;;;;;;;5.33;4.47;;;11.60;54.00;;;;;;5043117;28;20190;-48
2023/05/18 03:40:36;;;;;;;6.20;5.70;;;11.50;53.80;;;;;;5043693;28;20192;-46
2023/05/18 03:43:01;;;;;;;6.83;5.17;;;11.50;54.00;;;;;;5048835;28;20246;-45
2023/05/18 03:45:27;;;;;;;4.67;4.23;;;11.40;54.10;;;;;;5039708;28;20258;-46
2023/05/18 03:47:53;;;;;;;7.00;5.33;;;11.40;54.20;;;;;;5033863;28;20207;-47
2023/05/18 03:50:18;;;;;;;6.23;5.33;;;11.40;54.10;;;;;;5035555;28;20196;-47
2023/05/18 03:52:44;;;;;;;5.77;4.80;;;11.40;54.10;;;;;;5036771;28;20259;-46
2023/05/18 03:55:10;;;;;;;6.10;4.70;;;11.40;54.00;;;;;;5038963;28;20196;-46
2023/05/18 03:57:36;;;;;;;5.27;4.50;;;11.30;54.00;;;;;;5049995;28;20180;-47
2023/05/18 04:00:11;;;;;;;5.20;4.37;;;11.20;53.80;;;;;;5040960;28;20475;-46
2023/05/18 04:02:38;;;;;;;5.83;4.57;;;11.20;53.70;;;;;;5043544;28;20230;-46
2023/05/18 04:05:04;;;;;;;6.67;5.20;;;11.00;54.00;;;;;;5039664;28;21039;-51
2023/05/18 04:07:30;;;;;;;5.33;4.50;;;11.00;54.10;;;;;;5039764;28;20435;-46
2023/05/18 04:09:56;;;;;;;7.00;4.90;;;11.10;54.00;;;;;;5040034;28;20851;-50
2023/05/18 04:12:21;;;;;;;6.17;4.80;;;11.10;53.80;;;;;;5038151;28;20685;-45
2023/05/18 04:14:48;;;;;;;5.23;4.37;;;11.10;53.80;;;;;;5036466;28;20204;-47
2023/05/18 04:17:17;;;;;;;7.30;4.50;;;11.10;53.70;;;;;;5047769;28;20188;-46
2023/05/18 04:19:43;;;;;;;6.73;4.77;;;11.10;53.60;;;;;;5050243;28;20443;-46
2023/05/18 04:22:08;;;;;;;6.90;4.47;;;11.10;53.70;;;;;;5048788;28;20438;-46
2023/05/18 04:24:34;;;;;;;6.30;4.70;;;11.10;53.80;;;;;;5046937;28;20228;-49
2023/05/18 04:27:01;;;;;;;6.70;4.50;;;11.10;53.70;;;;;;5044020;28;20199;-46
2023/05/18 04:29:27;;;;;;;5.97;4.63;;;11.20;53.60;;;;;;5044173;28;20291;-46
2023/05/18 04:31:59;;;;;;;6.10;5.40;;;11.20;53.60;;;;;;5050379;28;20512;-46
2023/05/18 04:34:30;;;;;;;5.20;4.40;;;11.20;53.80;;;;;;5039570;28;20539;-46
2023/05/18 04:36:59;;;;;;;8.23;5.50;;;11.20;53.90;;;;;;5049241;28;20554;-46
2023/05/18 04:39:26;;;;;;;7.43;6.07;;;11.20;54.00;;;;;;5049556;28;20450;-46
2023/05/18 04:41:58;;;;;;;6.10;5.20;;;11.20;54.20;;;;;;5045382;28;20941;-47
2023/05/18 04:44:27;;;;;;;7.53;5.20;;;11.20;54.40;;;;;;5039456;28;20533;-47
2023/05/18 04:46:56;;;;;;;5.37;4.80;;;11.20;54.70;;;;;;5042802;28;20443;-47
2023/05/18 04:49:22;;;;;;;9.50;5.60;;;11.20;55.00;;;;;;5042618;28;20471;-47
2023/05/18 04:51:57;;;;;;;8.50;5.03;;;11.30;55.10;;;;;;5040541;28;20492;-47
2023/05/18 04:54:29;;;;;;;7.50;5.03;;;11.30;55.10;;;;;;5037471;28;20610;-46
2023/05/18 04:56:56;;;;;;;10.77;5.93;;;11.40;55.10;;;;;;5034299;28;20447;-49
2023/05/18 04:59:25;;;;;;;5.73;5.17;;;11.40;55.70;;;;;;5046205;28;20478;-46
2023/05/18 05:01:53;;;;;;;7.07;5.43;;;11.50;55.30;;;;;;5044337;28;20938;-47
2023/05/18 05:04:20;;;;;;;7.43;5.00;;;11.50;55.40;;;;;;5042428;28;20447;-46
2023/05/18 05:06:46;;;;;;;6.60;5.90;;;11.60;55.60;;;;;;5045859;28;21198;-46
2023/05/18 05:09:14;;;;;;;6.17;5.27;;;11.70;55.60;;;;;;5040899;28;20518;-46
2023/05/18 05:11:40;;;;;;;9.07;6.40;;;11.80;55.60;;;;;;5044217;28;20188;-47
2023/05/18 05:14:07;;;;;;;7.13;5.00;;;11.80;55.80;;;;;;5047550;28;20503;-47
2023/05/18 05:16:33;;;;;;;8.77;4.97;;;11.90;55.90;;;;;;5045138;28;20528;-48
2023/05/18 05:18:59;;;;;;;7.90;5.67;;;11.90;55.70;;;;;;5049648;28;20266;-47
2023/05/18 05:21:25;;;;;;;10.23;5.60;;;12.00;55.60;;;;;;5038385;28;20440;-50
2023/05/18 05:23:51;;;;;;;5.93;5.30;;;12.00;55.60;;;;;;5042842;28;20216;-47
2023/05/18 05:26:17;;;;;;;7.10;6.40;;;12.10;55.70;;;;;;5043528;28;20603;-48
2023/05/18 05:28:42;;;;;;;8.53;6.90;;;12.20;55.70;;;;;;5045221;28;20201;-46
2023/05/18 05:31:08;;;;;;;7.43;5.83;;;12.30;55.60;;;;;;5040122;28;20435;-48
2023/05/18 05:33:34;;;;;;;6.83;5.50;;;12.30;55.20;;;;;;5049104;28;20258;-47
2023/05/18 05:35:59;;;;;;;6.73;6.00;;;12.30;55.50;;;;;;5041176;28;20271;-52
2023/05/18 05:38:25;;;;;;;8.60;5.67;;;12.30;55.70;;;;;;5039615;28;20486;-47
2023/05/18 05:40:51;;;;;;;7.27;5.20;;;12.40;55.70;;;;;;5040525;28;20283;-51
2023/05/18 05:43:16;;;;;;;7.50;5.50;;;12.50;55.60;;;;;;5043406;28;20213;-48
2023/05/18 05:45:42;;;;;;;7.07;4.57;;;12.60;56.10;;;;;;5051624;28;20263;-49
2023/05/18 05:48:08;;;;;;;14.93;5.50;;;12.80;56.60;;;;;;5051960;28;20223;-47
2023/05/18 05:50:34;;;;;;;7.33;5.43;;;13.10;57.10;;;;;;5050575;28;20188;-48
2023/05/18 05:53:00;;;;;;;6.20;5.07;;;13.10;56.10;;;;;;5046553;28;20450;-47
2023/05/18 05:55:25;;;;;;;8.27;5.50;;;13.40;56.50;;;;;;5048428;28;20228;-47
2023/05/18 05:57:51;;;;;;;6.93;4.60;;;13.60;55.70;;;;;;5033765;28;20220;-47
2023/05/18 06:00:17;;;;;;;6.83;4.27;;;13.80;54.40;;;;;;5037532;28;20196;-48
2023/05/18 06:02:43;;;;;;;8.50;4.90;;;13.80;52.70;;;;;;5042615;28;20685;-49
2023/05/18 06:05:09;;;;;;;7.40;4.63;;;13.90;52.10;;;;;;5038629;28;20216;-52
2023/05/18 06:07:34;;;;;;;9.00;4.60;;;14.10;52.70;;;;;;5045583;28;20284;-47
2023/05/18 06:10:00;;;;;;;7.03;4.57;;;14.40;53.00;;;;;;5050742;28;20193;-47
2023/05/18 06:12:26;;;;;;;5.37;3.87;;;14.50;52.70;;;;;;5050273;28;20192;-48
2023/05/18 06:14:56;;;;;;;7.50;5.00;;;14.70;52.10;;;;;;5044334;28;20443;-49
2023/05/18 06:17:22;;;;;;;5.90;4.63;;;14.90;51.60;;;;;;5052056;28;20519;-48
2023/05/18 06:19:47;;;;;;;5.20;4.40;;;15.00;51.30;;;;;;5045705;28;20435;-49
2023/05/18 06:22:13;;;;;;;5.63;4.20;;;15.10;50.90;;;;;;5049942;28;20488;-47
2023/05/18 06:24:38;;;;;;;8.33;5.30;;;15.20;50.80;;;;;;5046826;28;20331;-52
2023/05/18 06:27:04;;;;;;;6.40;3.97;;;15.40;50.10;;;;;;5045251;28;20266;-50
2023/05/18 06:29:30;;;;;;;7.13;4.50;;;15.50;49.20;;;;;;5046670;28;20216;-48
2023/05/18 06:31:56;;;;;;;11.83;4.17;;;15.60;48.00;;;;;;5047002;28;20189;-47
2023/05/18 06:34:22;;;;;;;9.50;4.53;;;15.70;48.00;;;;;;5051191;28;20221;-48
2023/05/18 06:36:47;;;;;;;5.30;4.23;;;15.80;47.60;;;;;;5049756;28;20466;-48
2023/05/18 06:39:13;;;;;;;7.70;4.07;;;15.90;47.40;;;;;;5047760;28;20671;-48
2023/05/18 06:41:38;;;;;;;9.10;4.40;;;16.00;47.40;;;;;;5049670;28;20193;-48
2023/05/18 06:44:04;;;;;;;8.97;3.97;;;16.20;47.20;;;;;;5045501;28;20192;-48
2023/05/18 06:46:30;;;;;;;6.50;4.40;;;16.30;47.40;;;;;;5044644;28;20233;-52
2023/05/18 06:48:55;;;;;;;4.80;3.60;;;16.40;46.90;;;;;;5048574;28;20200;-49
2023/05/18 06:51:21;;;;;;;7.50;3.50;;;16.50;46.60;;;;;;5046284;28;20656;-52
2023/05/18 06:53:47;;;;;;;5.20;3.90;;;16.50;46.20;;;;;;5046701;28;20192;-48
2023/05/18 06:56:13;;;;;;;5.93;3.80;;;16.60;46.00;;;;;;5048113;28;20220;-51
2023/05/18 06:58:40;;;;;;;5.87;3.90;;;16.80;46.30;;;;;;5044953;28;20226;-50
2023/05/18 07:01:05;;;;;;;6.13;4.10;;;16.90;45.90;;;;;;5046800;28;20489;-47
2023/05/18 07:03:31;;;;;;;7.30;3.53;;;17.00;45.60;;;;;;5048614;28;20470;-49
2023/05/18 07:05:57;;;;;;;6.07;3.83;;;17.10;45.70;;;;;;5045449;28;20223;-48
2023/05/18 07:08:23;;;;;;;8.37;3.63;;;17.20;46.00;;;;;;5051176;28;20661;-49
2023/05/18 07:10:50;;;;;;;10.37;4.17;;;17.30;45.80;;;;;;5043749;28;20432;-54
2023/05/18 07:13:21;;;;;;;7.10;4.40;;;17.60;45.00;;;;;;5032164;28;20429;-53
2023/05/18 07:15:47;;;;;;;7.80;3.83;;;17.70;45.10;;;;;;5031572;28;20908;-51
2023/05/18 07:18:13;;;;;;;4.70;3.33;;;17.80;44.60;;;;;;5031724;28;20424;-48
2023/05/18 07:20:38;;;;;;;6.00;3.53;;;17.90;44.30;;;;;;5036770;28;20196;-48
2023/05/18 07:23:04;;;;;;;8.30;4.33;;;18.00;44.30;;;;;;5031849;28;20200;-47
2023/05/18 07:25:29;;;;;;;7.50;4.30;;;18.00;44.10;;;;;;5031087;28;20314;-49
2023/05/18 07:27:55;;;;;;;7.93;4.30;;;18.00;44.30;;;;;;5029646;28;20671;-48
2023/05/18 07:30:21;;;;;;;10.23;4.57;;;18.10;44.40;;;;;;5038332;28;20192;-49
2023/05/18 07:32:47;;;;;;;9.97;3.27;;;18.20;44.10;;;;;;5036718;28;20200;-47
2023/05/18 07:35:15;;;;;;;5.87;4.17;;;18.40;44.60;;;;;;5031362;28;20961;-50
2023/05/18 07:37:41;;;;;;;7.13;3.63;;;18.40;43.70;;;;;;5042962;28;20900;-48
2023/05/18 07:40:08;;;;;;;6.07;3.53;;;18.60;43.10;;;;;;5051214;28;20419;-51
2023/05/18 07:42:34;;;;;;;5.67;3.67;;;18.80;43.50;;;;;;5041275;28;20687;-47
2023/05/18 07:45:00;;;;;;;7.30;3.43;;;19.00;43.50;;;;;;5051208;28;20486;-49
2023/05/18 07:47:26;;;;;;;4.77;3.70;;;19.20;42.90;;;;;;5051555;28;20431;-48
2023/05/18 07:49:51;;;;;;;5.50;3.50;;;19.40;42.40;;;;;;5051521;28;20219;-48
2023/05/18 07:52:17;;;;;;;7.10;3.73;;;19.50;42.30;;;;;;5050682;28;20277;-49
2023/05/18 07:54:43;;;;;;;8.97;3.97;;;19.40;42.40;;;;;;5040344;28;20201;-48
2023/05/18 07:57:08;;;;;;;6.20;3.60;;;19.20;40.70;;;;;;5032948;28;20231;-52
2023/05/18 07:59:34;;;;;;;5.63;3.40;;;18.90;41.90;;;;;;5051420;28;20463;-47
2023/05/18 08:02:00;;;;;;;6.93;3.60;;;18.40;41.30;;;;;;5042475;28;20562;-47
2023/05/18 08:04:26;;;;;;;5.73;2.83;;;18.20;42.30;;;;;;5048855;28;20287;-47
2023/05/18 08:06:53;;;;;;;7.80;2.70;;;18.30;41.50;;;;;;5050583;28;20435;-47
2023/05/18 08:09:21;;;;;;;4.70;3.00;;;18.60;42.00;;;;;;5043012;28;20428;-48
2023/05/18 08:11:46;;;;;;;8.30;3.23;;;18.60;40.80;;;;;;5042924;28;20449;-52
2023/05/18 08:14:12;;;;;;;5.70;3.00;;;18.70;40.70;;;;;;5048798;28;20443;-48
2023/05/18 08:16:38;;;;;;;6.33;3.40;;;18.80;40.10;;;;;;5044884;28;20192;-48
2023/05/18 08:19:04;;;;;;;8.80;3.23;;;19.10;39.80;;;;;;5044550;28;20189;-47
2023/05/18 08:21:30;;;;;;;8.97;3.40;;;19.30;39.70;;;;;;5049484;28;20529;-53
2023/05/18 08:23:55;;;;;;;7.20;3.40;;;19.50;39.60;;;;;;5041515;28;20652;-49
2023/05/18 08:26:21;;;;;;;6.40;3.37;;;19.40;39.00;;;;;;5040222;28;20564;-50
2023/05/18 08:28:47;;;;;;;6.43;3.20;;;19.50;39.10;;;;;;5043011;28;20195;-47
2023/05/18 08:31:14;;;;;;;12.23;3.10;;;19.30;38.80;;;;;;5038430;28;20207;-48
2023/05/18 08:33:40;;;;;;;6.00;3.10;;;19.10;39.80;;;;;;5043011;28;20443;-52
2023/05/18 08:36:07;;;;;;;5.53;3.00;;;19.20;39.50;;;;;;5045850;28;20867;-49
2023/05/18 08:38:33;;;;;;;7.40;4.30;;;19.50;38.80;;;;;;5050013;28;20959;-51
2023/05/18 08:41:28;;;;;;;6.47;3.17;;;19.90;39.10;;;;;;5052536;28;20454;-48
2023/05/18 08:44:05;;;;;;;6.70;4.10;;;20.30;38.60;;;;;;5049473;28;20498;-49
2023/05/18 08:46:35;;;;;;;5.83;3.40;;;20.60;37.20;;;;;;5042298;28;20549;-52
2023/05/18 08:49:03;;;;;;;4.97;2.93;;;19.90;37.70;;;;;;5038949;28;20439;-49
2023/05/18 08:51:34;;;;;;;4.90;3.80;;;20.20;38.40;;;;;;5046381;28;20451;-49
2023/05/18 08:53:59;;;;;;;6.30;3.23;;;20.50;37.70;;;;;;5051575;28;20451;-50
2023/05/18 08:56:25;;;;;;;4.40;3.40;;;20.30;36.70;;;;;;5047852;28;20953;-51
2023/05/18 08:58:55;;;;;;;5.73;3.40;;;20.40;37.20;;;;;;5046554;28;20370;-54
2023/05/18 09:01:26;;;;;;;7.10;3.43;;;21.00;38.80;;;;;;5052264;28;20220;-50
2023/05/18 09:03:53;;;;;;;11.90;3.50;;;21.50;37.80;;;;;;5050499;28;20488;-49
2023/05/18 09:06:23;;;;;;;7.87;3.17;;;21.30;35.90;;;;;;5054649;28;20536;-48
2023/05/18 09:08:55;;;;;;;5.60;3.30;;;21.30;36.30;;;;;;5041851;28;20427;-50
2023/05/18 09:11:23;;;;;;;11.90;3.83;;;21.60;36.90;;;;;;5045997;28;20451;-49
2023/05/18 09:13:51;;;;;;;7.37;3.17;;;21.90;35.30;;;;;;5043392;28;20432;-49
2023/05/18 09:16:18;;;;;;;7.43;3.83;;;22.00;35.90;;;;;;5045920;28;20446;-52
2023/05/18 09:18:44;;;;;;;9.00;3.87;;;22.10;34.70;;;;;;5047294;28;20468;-47
2023/05/18 09:21:10;;;;;;;4.67;3.33;;;22.10;34.70;;;;;;5052480;28;20866;-50
2023/05/18 09:23:40;;;;;;;6.10;3.40;;;21.90;34.50;;;;;;5050734;28;20200;-50
2023/05/18 09:26:08;;;;;;;10.60;4.20;;;22.20;35.60;;;;;;5039114;28;21158;-49
2023/05/18 09:28:36;;;;;;;8.00;4.40;;;22.10;33.80;;;;;;5050548;28;20466;-50
2023/05/18 09:31:07;;;;;;;9.43;4.03;;;22.20;33.70;;;;;;5051440;28;20960;-48
2023/05/18 09:33:35;;;;;;;5.23;3.60;;;21.90;34.50;;;;;;5052493;28;20451;-49
2023/05/18 09:36:02;;;;;;;8.23;3.20;;;22.00;34.30;;;;;;5051884;28;20889;-51
2023/05/18 09:38:28;;;;;;;6.90;3.87;;;21.90;33.40;;;;;;5045648;28;20448;-48
2023/05/18 09:40:54;;;;;;;5.53;3.17;;;21.80;33.00;;;;;;5052309;28;20461;-48
2023/05/18 09:43:20;;;;;;;7.33;3.50;;;22.00;34.10;;;;;;5038534;28;20275;-52
2023/05/18 09:45:48;;;;;;;5.33;3.40;;;22.30;34.70;;;;;;5051938;28;20668;-49
2023/05/18 09:48:15;;;;;;;6.40;3.20;;;22.70;33.90;;;;;;5050333;28;20199;-50
2023/05/18 09:50:42;;;;;;;6.70;3.37;;;23.00;33.50;;;;;;5051694;28;20449;-52
2023/05/18 09:53:09;;;;;;;6.27;3.60;;;22.80;31.80;;;;;;5043231;28;20472;-53
2023/05/18 09:55:45;;;;;;;7.20;3.60;;;22.60;32.90;;;;;;5039002;28;20435;-53
2023/05/18 09:58:10;;;;;;;5.50;3.60;;;22.90;33.00;;;;;;5044974;28;20467;-52
2023/05/18 10:01:02;;;;;;;5.90;3.10;;;23.00;32.50;;;;;;5049428;28;20431;-53
2023/05/18 10:03:36;;;;;;;8.50;3.70;;;23.00;32.40;;;;;;5042883;28;20205;-52
2023/05/18 10:06:11;;;;;;;7.43;3.33;;;23.10;31.80;;;;;;5044011;28;20573;-51
2023/05/18 10:08:37;;;;;;;8.93;3.10;;;23.30;31.50;;;;;;5048642;28;20474;-51
2023/05/18 10:11:04;;;;;;;6.40;3.40;;;23.30;31.40;;;;;;5051492;28;20454;-53
2023/05/18 10:13:31;;;;;;;4.70;3.00;;;23.30;31.30;;;;;;5037164;28;20530;-53
2023/05/18 10:15:59;;;;;;;5.47;3.87;;;23.20;32.20;;;;;;5045583;28;20486;-53
2023/05/18 10:18:29;;;;;;;4.10;3.00;;;23.30;32.00;;;;;;5052185;28;20443;-49
2023/05/18 10:20:57;;;;;;;8.30;3.60;;;23.30;31.80;;;;;;5050193;28;20443;-52
2023/05/18 10:23:25;;;;;;;4.30;2.83;;;23.10;31.30;;;;;;5051136;28;20530;-48
2023/05/18 10:25:51;;;;;;;3.80;3.00;;;23.40;32.60;;;;;;5047877;28;20486;-53
2023/05/18 10:28:29;;;;;;;6.20;3.40;;;23.50;30.70;;;;;;5049011;28;20443;-50
2023/05/18 10:30:57;;;;;;;7.60;3.53;;;23.50;31.60;;;;;;5052680;28;20431;-52
2023/05/18 10:33:27;;;;;;;6.00;3.20;;;23.80;33.70;;;;;;5049021;28;20519;-54
2023/05/18 10:35:53;;;;;;;4.50;2.93;;;24.10;32.80;;;;;;5049839;28;20965;-52
2023/05/18 10:38:24;;;;;;;5.10;3.30;;;24.00;29.90;;;;;;5040399;28;20481;-50
2023/05/18 10:40:59;;;;;;;5.07;2.90;;;24.10;30.40;;;;;;5048348;28;20953;-50
2023/05/18 10:43:27;;;;;;;3.40;2.60;;;24.00;29.90;;;;;;5042413;28;20477;-51
2023/05/18 10:45:58;;;;;;;4.73;2.93;;;24.00;30.00;;;;;;5042118;28;20488;-51
2023/05/18 10:48:24;;;;;;;4.50;2.93;;;24.30;30.50;;;;;;5042239;28;20428;-48
2023/05/18 10:50:54;;;;;;;10.67;3.60;;;24.50;31.40;;;;;;5034328;28;20959;-53
2023/05/18 10:53:23;;;;;;;8.03;3.70;;;24.80;30.50;;;;;;5051256;28;20470;-50
2023/05/18 10:55:50;;;;;;;5.80;3.10;;;24.80;29.90;;;;;;5047767;28;20485;-50
2023/05/18 10:58:20;;;;;;;7.70;3.23;;;24.70;30.40;;;;;;5051961;28;21039;-51
2023/05/18 11:00:50;;;;;;;6.37;3.00;;;24.80;30.00;;;;;;5051428;28;20462;-51
2023/05/18 11:03:17;;;;;;;12.00;2.80;;;25.30;30.20;;;;;;5050641;28;20521;-51
2023/05/18 11:05:47;;;;;;;7.10;3.20;;;25.50;29.00;;;;;;5042945;28;20487;-51
2023/05/18 11:08:24;;;;;;;5.33;3.27;;;25.70;29.40;;;;;;5050049;28;20435;-50
2023/05/18 11:11:02;;;;;;;5.90;2.97;;;25.60;29.20;;;;;;5043293;28;20451;-51
2023/05/18 11:13:32;;;;;;;5.70;2.77;;;25.60;28.80;;;;;;5048711;28;20489;-52
2023/05/18 11:15:58;;;;;;;4.97;2.80;;;25.80;29.30;;;;;;5049085;28;20451;-51
2023/05/18 11:18:48;;;;;;;7.03;3.50;;;26.10;28.40;;;;;;5043067;28;20454;-52
2023/05/18 11:21:49;;;;;;;10.83;3.63;;;26.10;30.00;;;;;;5051823;28;20632;-51
2023/05/18 11:24:29;;;;;;;4.87;2.87;;;25.80;29.20;;;;;;5019276;28;20447;-51
2023/05/18 11:27:15;;;;;;;7.77;2.80;;;26.00;28.40;;;;;;5040753;28;20453;-52
2023/05/18 11:29:46;;;;;;;4.27;2.70;;;26.10;28.70;;;;;;5050178;28;20450;-53
2023/05/18 11:32:32;;;;;;;5.10;2.70;;;26.10;29.80;;;;;;5050763;28;20442;-51
2023/05/18 11:34:58;;;;;;;5.93;2.97;;;25.70;27.60;;;;;;5040172;28;20553;-50
2023/05/18 11:37:43;;;;;;;5.80;3.10;;;25.10;28.40;;;;;;5045181;28;20443;-51
2023/05/18 11:40:11;;;;;;;8.00;3.13;;;25.00;28.70;;;;;;5049994;28;20451;-51
2023/05/18 11:42:38;;;;;;;4.47;2.90;;;25.00;29.50;;;;;;5035879;28;20519;-52
2023/05/18 11:45:08;;;;;;;4.70;2.60;;;25.00;29.70;;;;;;5035589;28;20494;-52
2023/05/18 11:47:35;;;;;;;5.30;3.10;;;24.90;28.80;;;;;;5050328;28;20512;-52
2023/05/18 11:50:01;;;;;;;6.53;2.90;;;25.10;28.80;;;;;;5045808;28;20853;-53
2023/05/18 11:52:28;;;;;;;6.40;2.70;;;24.90;29.20;;;;;;5047816;28;20798;-52
2023/05/18 11:54:55;;;;;;;4.70;3.10;;;24.80;29.40;;;;;;5050096;28;20451;-56
2023/05/18 11:57:33;;;;;;;4.47;2.80;;;25.10;29.40;;;;;;5049709;28;20494;-54
2023/05/18 12:00:00;;;;;;;7.47;2.87;;;25.40;29.20;;;;;;5051017;28;20486;-52
2023/05/18 12:02:29;;;;;;;4.73;2.60;;;25.60;29.70;;;;;;5049045;28;20453;-51
2023/05/18 12:04:58;;;;;;;6.73;3.27;;;25.60;28.90;;;;;;5048830;28;20507;-55
2023/05/18 12:07:25;;;;;;;4.40;2.40;;;25.60;28.90;;;;;;5045432;28;20520;-53
2023/05/18 12:09:51;;;;;;;7.77;2.60;;;25.70;29.10;;;;;;5051077;28;20439;-54
2023/05/18 12:12:22;;;;;;;6.37;3.37;;;25.90;28.90;;;;;;5051076;28;20435;-54
2023/05/18 12:14:54;;;;;;;7.17;2.70;;;26.20;28.00;;;;;;5050060;28;20686;-54
2023/05/18 12:17:21;;;;;;;5.43;2.60;;;26.20;27.60;;;;;;5054406;28;20857;-53
2023/05/18 12:19:47;;;;;;;5.60;2.40;;;26.30;28.10;;;;;;5048641;28;20565;-51
2023/05/18 12:22:13;;;;;;;3.70;2.53;;;26.40;28.60;;;;;;5046982;28;20470;-56
2023/05/18 12:24:41;;;;;;;3.93;2.83;;;26.50;30.00;;;;;;5051752;28;20506;-53
2023/05/18 12:27:08;;;;;;;6.30;2.77;;;26.60;29.10;;;;;;5054507;28;20184;-54
2023/05/18 12:29:41;;;;;;;6.33;2.57;;;26.60;28.50;;;;;;5052773;28;20458;-52
2023/05/18 12:32:09;;;;;;;5.27;3.17;;;25.90;28.20;;;;;;5054255;28;20458;-56
2023/05/18 12:34:35;;;;;;;5.73;2.70;;;25.80;28.70;;;;;;5052301;28;20865;-56
2023/05/18 12:37:01;;;;;;;7.70;3.40;;;26.10;28.50;;;;;;5054937;28;20419;-56
2023/05/18 12:39:27;;;;;;;7.17;2.67;;;26.40;27.80;;;;;;5054789;28;20489;-52
2023/05/18 12:41:53;;;;;;;7.27;3.63;;;26.20;28.10;;;;;;5054683;28;20435;-53
2023/05/18 12:44:21;;;;;;;3.80;2.40;;;26.10;28.10;;;;;;5052576;28;20235;-54
2023/05/18 12:46:47;;;;;;;4.63;2.87;;;25.90;28.40;;;;;;5053814;28;20213;-53
2023/05/18 12:49:12;;;;;;;3.00;2.60;;;25.90;28.40;;;;;;5047733;28;20831;-52